sensor_id;sensor_type;location;lat;lon;timestamp;P1;durP1;ratioP1;P2;durP2;ratioP2
42000;SDS011;27689;48.390;10.856;2023-12-29T00:02:19;4.90;;;3.53;;
42000;SDS011;27689;48.390;10.856;2023-12-29T00:05:03;4.57;;;3.00;;
42000;SDS011;27689;48.390;10.856;2023-12-29T00:07:48;6.10;;;3.53;;
42000;SDS011;27689;48.390;10.856;2023-12-29T00:10:32;6.07;;;3.10;;
42000;SDS011;27689;48.390;10.856;2023-12-29T00:13:16;4.40;;;3.22;;
42000;SDS011;27689;48.390;10.856;2023-12-29T00:16:05;4.30;;;2.70;;
42000;SDS011;27689;48.390;10.856;2023-12-29T00:18:49;6.13;;;2.90;;
42000;SDS011;27689;48.390;10.856;2023-12-29T00:21:33;4.53;;;3.05;;
42000;SDS011;27689;48.390;10.856;2023-12-29T00:24:17;3.70;;;3.00;;
42000;SDS011;27689;48.390;10.856;2023-12-29T00:27:01;4.60;;;2.93;;
42000;SDS011;27689;48.390;10.856;2023-12-29T00:29:45;3.97;;;3.10;;
42000;SDS011;27689;48.390;10.856;2023-12-29T00:32:29;3.85;;;2.65;;
42000;SDS011;27689;48.390;10.856;2023-12-29T00:35:13;4.85;;;2.53;;
42000;SDS011;27689;48.390;10.856;2023-12-29T00:37:57;3.45;;;2.75;;
42000;SDS011;27689;48.390;10.856;2023-12-29T00:40:41;5.27;;;2.57;;
42000;SDS011;27689;48.390;10.856;2023-12-29T00:43:25;5.72;;;2.88;;
42000;SDS011;27689;48.390;10.856;2023-12-29T00:46:09;5.25;;;3.00;;
42000;SDS011;27689;48.390;10.856;2023-12-29T00:48:53;4.50;;;2.90;;
42000;SDS011;27689;48.390;10.856;2023-12-29T00:51:40;4.67;;;2.97;;
42000;SDS011;27689;48.390;10.856;2023-12-29T00:54:27;5.25;;;3.17;;
42000;SDS011;27689;48.390;10.856;2023-12-29T00:57:11;4.97;;;3.10;;
42000;SDS011;27689;48.390;10.856;2023-12-29T00:59:55;4.40;;;3.38;;
42000;SDS011;27689;48.390;10.856;2023-12-29T01:02:39;5.40;;;3.23;;
42000;SDS011;27689;48.390;10.856;2023-12-29T01:05:23;4.47;;;3.50;;
42000;SDS011;27689;48.390;10.856;2023-12-29T01:08:07;3.70;;;3.08;;
42000;SDS011;27689;48.390;10.856;2023-12-29T01:10:51;5.13;;;3.50;;
42000;SDS011;27689;48.390;10.856;2023-12-29T01:13:35;5.53;;;3.37;;
42000;SDS011;27689;48.390;10.856;2023-12-29T01:16:19;4.45;;;3.10;;
42000;SDS011;27689;48.390;10.856;2023-12-29T01:19:02;4.40;;;3.28;;
42000;SDS011;27689;48.390;10.856;2023-12-29T01:21:46;4.60;;;3.27;;
42000;SDS011;27689;48.390;10.856;2023-12-29T01:24:30;4.43;;;3.50;;
42000;SDS011;27689;48.390;10.856;2023-12-29T01:27:14;5.30;;;3.35;;
42000;SDS011;27689;48.390;10.856;2023-12-29T01:29:58;4.23;;;3.33;;
42000;SDS011;27689;48.390;10.856;2023-12-29T01:32:43;5.68;;;3.50;;
42000;SDS011;27689;48.390;10.856;2023-12-29T01:35:27;5.07;;;3.42;;
42000;SDS011;27689;48.390;10.856;2023-12-29T01:38:11;4.43;;;3.60;;
42000;SDS011;27689;48.390;10.856;2023-12-29T01:40:55;4.85;;;4.00;;
42000;SDS011;27689;48.390;10.856;2023-12-29T01:44:02;4.73;;;3.53;;
42000;SDS011;27689;48.390;10.856;2023-12-29T01:47:01;7.43;;;4.05;;
42000;SDS011;27689;48.390;10.856;2023-12-29T01:49:46;6.30;;;3.80;;
42000;SDS011;27689;48.390;10.856;2023-12-29T01:52:32;4.88;;;3.90;;
42000;SDS011;27689;48.390;10.856;2023-12-29T01:55:17;6.43;;;3.75;;
42000;SDS011;27689;48.390;10.856;2023-12-29T01:58:04;7.10;;;3.72;;
42000;SDS011;27689;48.390;10.856;2023-12-29T02:00:47;5.82;;;3.50;;
42000;SDS011;27689;48.390;10.856;2023-12-29T02:03:32;6.32;;;3.58;;
42000;SDS011;27689;48.390;10.856;2023-12-29T02:06:17;4.80;;;3.80;;
42000;SDS011;27689;48.390;10.856;2023-12-29T02:09:03;6.05;;;3.78;;
42000;SDS011;27689;48.390;10.856;2023-12-29T02:11:48;5.05;;;3.75;;
42000;SDS011;27689;48.390;10.856;2023-12-29T02:14:32;5.85;;;3.83;;
42000;SDS011;27689;48.390;10.856;2023-12-29T02:17:22;5.68;;;3.60;;
42000;SDS011;27689;48.390;10.856;2023-12-29T02:20:11;4.88;;;3.58;;
42000;SDS011;27689;48.390;10.856;2023-12-29T02:22:56;6.40;;;4.00;;
42000;SDS011;27689;48.390;10.856;2023-12-29T02:25:40;3.92;;;3.40;;
42000;SDS011;27689;48.390;10.856;2023-12-29T02:28:25;4.23;;;3.70;;
42000;SDS011;27689;48.390;10.856;2023-12-29T02:31:11;5.05;;;3.53;;
42000;SDS011;27689;48.390;10.856;2023-12-29T02:34:00;3.97;;;3.28;;
42000;SDS011;27689;48.390;10.856;2023-12-29T02:36:49;6.20;;;4.10;;
42000;SDS011;27689;48.390;10.856;2023-12-29T02:39:35;6.20;;;3.80;;
42000;SDS011;27689;48.390;10.856;2023-12-29T02:42:19;5.68;;;3.50;;
42000;SDS011;27689;48.390;10.856;2023-12-29T02:45:03;5.70;;;4.15;;
42000;SDS011;27689;48.390;10.856;2023-12-29T02:47:48;4.90;;;3.92;;
42000;SDS011;27689;48.390;10.856;2023-12-29T02:50:32;7.95;;;4.22;;
42000;SDS011;27689;48.390;10.856;2023-12-29T02:53:16;6.05;;;3.83;;
42000;SDS011;27689;48.390;10.856;2023-12-29T02:56:00;6.07;;;4.10;;
42000;SDS011;27689;48.390;10.856;2023-12-29T02:58:44;5.05;;;4.03;;
42000;SDS011;27689;48.390;10.856;2023-12-29T03:01:29;6.50;;;4.15;;
42000;SDS011;27689;48.390;10.856;2023-12-29T03:04:13;6.57;;;4.55;;
42000;SDS011;27689;48.390;10.856;2023-12-29T03:06:57;5.53;;;4.15;;
42000;SDS011;27689;48.390;10.856;2023-12-29T03:09:41;6.33;;;4.00;;
42000;SDS011;27689;48.390;10.856;2023-12-29T03:12:25;5.30;;;4.03;;
42000;SDS011;27689;48.390;10.856;2023-12-29T03:15:09;5.65;;;3.95;;
42000;SDS011;27689;48.390;10.856;2023-12-29T03:17:53;6.85;;;4.30;;
42000;SDS011;27689;48.390;10.856;2023-12-29T03:20:37;5.40;;;4.13;;
42000;SDS011;27689;48.390;10.856;2023-12-29T03:23:21;4.17;;;3.67;;
42000;SDS011;27689;48.390;10.856;2023-12-29T03:26:04;6.15;;;3.60;;
42000;SDS011;27689;48.390;10.856;2023-12-29T03:28:50;6.75;;;3.72;;
42000;SDS011;27689;48.390;10.856;2023-12-29T03:31:34;4.55;;;3.60;;
42000;SDS011;27689;48.390;10.856;2023-12-29T03:34:17;5.97;;;3.80;;
42000;SDS011;27689;48.390;10.856;2023-12-29T03:37:03;5.63;;;3.67;;
42000;SDS011;27689;48.390;10.856;2023-12-29T03:39:47;6.88;;;3.90;;
42000;SDS011;27689;48.390;10.856;2023-12-29T03:42:30;5.03;;;3.72;;
42000;SDS011;27689;48.390;10.856;2023-12-29T03:45:14;4.07;;;3.60;;
42000;SDS011;27689;48.390;10.856;2023-12-29T03:47:59;6.10;;;3.92;;
42000;SDS011;27689;48.390;10.856;2023-12-29T03:50:43;4.82;;;4.10;;
42000;SDS011;27689;48.390;10.856;2023-12-29T03:53:27;5.10;;;4.20;;
42000;SDS011;27689;48.390;10.856;2023-12-29T03:56:17;5.60;;;3.50;;
42000;SDS011;27689;48.390;10.856;2023-12-29T03:59:02;4.72;;;3.50;;
42000;SDS011;27689;48.390;10.856;2023-12-29T04:01:46;5.60;;;3.63;;
42000;SDS011;27689;48.390;10.856;2023-12-29T04:04:30;6.57;;;3.83;;
42000;SDS011;27689;48.390;10.856;2023-12-29T04:07:14;6.63;;;3.27;;
42000;SDS011;27689;48.390;10.856;2023-12-29T04:09:58;4.57;;;3.30;;
42000;SDS011;27689;48.390;10.856;2023-12-29T04:12:42;5.30;;;3.63;;
42000;SDS011;27689;48.390;10.856;2023-12-29T04:15:26;4.93;;;3.55;;
42000;SDS011;27689;48.390;10.856;2023-12-29T04:18:09;4.28;;;3.28;;
42000;SDS011;27689;48.390;10.856;2023-12-29T04:20:53;4.47;;;3.13;;
42000;SDS011;27689;48.390;10.856;2023-12-29T04:23:37;4.80;;;3.70;;
42000;SDS011;27689;48.390;10.856;2023-12-29T04:26:21;5.40;;;3.30;;
42000;SDS011;27689;48.390;10.856;2023-12-29T04:29:05;5.32;;;3.08;;
42000;SDS011;27689;48.390;10.856;2023-12-29T04:31:49;5.63;;;3.93;;
42000;SDS011;27689;48.390;10.856;2023-12-29T04:34:33;3.97;;;3.10;;
42000;SDS011;27689;48.390;10.856;2023-12-29T04:37:17;4.05;;;2.65;;
42000;SDS011;27689;48.390;10.856;2023-12-29T04:40:01;6.63;;;2.90;;
42000;SDS011;27689;48.390;10.856;2023-12-29T04:42:45;4.87;;;3.07;;
42000;SDS011;27689;48.390;10.856;2023-12-29T04:45:29;4.45;;;3.17;;
42000;SDS011;27689;48.390;10.856;2023-12-29T04:48:13;7.68;;;3.40;;
42000;SDS011;27689;48.390;10.856;2023-12-29T04:50:57;6.13;;;3.30;;
42000;SDS011;27689;48.390;10.856;2023-12-29T04:53:41;3.58;;;2.80;;
42000;SDS011;27689;48.390;10.856;2023-12-29T04:56:25;5.17;;;3.17;;
42000;SDS011;27689;48.390;10.856;2023-12-29T04:59:09;4.22;;;3.20;;
42000;SDS011;27689;48.390;10.856;2023-12-29T05:01:53;4.60;;;3.13;;
42000;SDS011;27689;48.390;10.856;2023-12-29T05:04:37;3.55;;;2.90;;
42000;SDS011;27689;48.390;10.856;2023-12-29T05:07:23;6.15;;;3.42;;
42000;SDS011;27689;48.390;10.856;2023-12-29T05:10:07;7.40;;;3.05;;
42000;SDS011;27689;48.390;10.856;2023-12-29T05:12:52;3.63;;;3.00;;
42000;SDS011;27689;48.390;10.856;2023-12-29T05:15:36;4.50;;;3.20;;
42000;SDS011;27689;48.390;10.856;2023-12-29T05:18:19;4.43;;;2.70;;
42000;SDS011;27689;48.390;10.856;2023-12-29T05:21:03;4.93;;;3.20;;
42000;SDS011;27689;48.390;10.856;2023-12-29T05:23:47;3.57;;;3.00;;
42000;SDS011;27689;48.390;10.856;2023-12-29T05:26:31;5.00;;;2.53;;
42000;SDS011;27689;48.390;10.856;2023-12-29T05:29:15;4.20;;;2.85;;
42000;SDS011;27689;48.390;10.856;2023-12-29T05:31:59;5.63;;;2.90;;
42000;SDS011;27689;48.390;10.856;2023-12-29T05:34:42;4.82;;;3.40;;
42000;SDS011;27689;48.390;10.856;2023-12-29T05:37:26;3.73;;;3.03;;
42000;SDS011;27689;48.390;10.856;2023-12-29T05:40:10;5.13;;;3.10;;
42000;SDS011;27689;48.390;10.856;2023-12-29T05:42:55;4.15;;;2.70;;
42000;SDS011;27689;48.390;10.856;2023-12-29T05:45:39;5.05;;;3.00;;
42000;SDS011;27689;48.390;10.856;2023-12-29T05:48:22;5.33;;;2.90;;
42000;SDS011;27689;48.390;10.856;2023-12-29T05:53:56;5.40;;;3.03;;
42000;SDS011;27689;48.390;10.856;2023-12-29T05:56:40;4.80;;;3.13;;
42000;SDS011;27689;48.390;10.856;2023-12-29T05:59:24;4.93;;;3.03;;
42000;SDS011;27689;48.390;10.856;2023-12-29T06:02:08;3.80;;;2.90;;
42000;SDS011;27689;48.390;10.856;2023-12-29T06:04:52;4.97;;;3.17;;
42000;SDS011;27689;48.390;10.856;2023-12-29T06:07:36;5.37;;;3.43;;
42000;SDS011;27689;48.390;10.856;2023-12-29T06:10:20;3.97;;;2.90;;
42000;SDS011;27689;48.390;10.856;2023-12-29T06:13:04;4.13;;;2.80;;
42000;SDS011;27689;48.390;10.856;2023-12-29T06:15:48;5.50;;;3.25;;
42000;SDS011;27689;48.390;10.856;2023-12-29T06:18:32;4.55;;;3.25;;
42000;SDS011;27689;48.390;10.856;2023-12-29T06:21:16;5.85;;;3.33;;
42000;SDS011;27689;48.390;10.856;2023-12-29T06:24:00;5.28;;;3.15;;
42000;SDS011;27689;48.390;10.856;2023-12-29T06:26:44;4.90;;;3.40;;
42000;SDS011;27689;48.390;10.856;2023-12-29T06:29:28;7.43;;;3.63;;
42000;SDS011;27689;48.390;10.856;2023-12-29T06:32:12;5.23;;;3.33;;
42000;SDS011;27689;48.390;10.856;2023-12-29T06:34:56;4.28;;;3.20;;
42000;SDS011;27689;48.390;10.856;2023-12-29T06:37:40;5.53;;;3.30;;
42000;SDS011;27689;48.390;10.856;2023-12-29T06:40:24;4.90;;;3.17;;
42000;SDS011;27689;48.390;10.856;2023-12-29T06:43:08;5.80;;;3.58;;
42000;SDS011;27689;48.390;10.856;2023-12-29T06:45:52;4.10;;;2.97;;
42000;SDS011;27689;48.390;10.856;2023-12-29T06:48:36;4.80;;;3.17;;
42000;SDS011;27689;48.390;10.856;2023-12-29T06:51:20;7.90;;;3.00;;
42000;SDS011;27689;48.390;10.856;2023-12-29T06:54:06;3.97;;;2.92;;
42000;SDS011;27689;48.390;10.856;2023-12-29T06:56:51;4.93;;;3.42;;
42000;SDS011;27689;48.390;10.856;2023-12-29T06:59:35;4.23;;;2.93;;
42000;SDS011;27689;48.390;10.856;2023-12-29T07:02:19;5.18;;;3.25;;
42000;SDS011;27689;48.390;10.856;2023-12-29T07:05:02;4.47;;;2.65;;
42000;SDS011;27689;48.390;10.856;2023-12-29T07:07:47;4.70;;;3.00;;
42000;SDS011;27689;48.390;10.856;2023-12-29T07:10:31;4.73;;;3.07;;
42000;SDS011;27689;48.390;10.856;2023-12-29T07:13:15;3.30;;;2.92;;
42000;SDS011;27689;48.390;10.856;2023-12-29T07:15:59;4.28;;;3.15;;
42000;SDS011;27689;48.390;10.856;2023-12-29T07:18:43;3.28;;;2.63;;
42000;SDS011;27689;48.390;10.856;2023-12-29T07:21:27;5.73;;;3.33;;
42000;SDS011;27689;48.390;10.856;2023-12-29T07:24:11;5.25;;;2.75;;
42000;SDS011;27689;48.390;10.856;2023-12-29T07:26:55;3.97;;;2.80;;
42000;SDS011;27689;48.390;10.856;2023-12-29T07:29:39;5.43;;;3.10;;
42000;SDS011;27689;48.390;10.856;2023-12-29T07:32:23;3.97;;;2.28;;
42000;SDS011;27689;48.390;10.856;2023-12-29T07:35:07;3.80;;;3.13;;
42000;SDS011;27689;48.390;10.856;2023-12-29T07:37:51;7.47;;;3.10;;
42000;SDS011;27689;48.390;10.856;2023-12-29T07:40:35;5.27;;;3.27;;
42000;SDS011;27689;48.390;10.856;2023-12-29T07:43:19;3.08;;;2.53;;
42000;SDS011;27689;48.390;10.856;2023-12-29T07:46:03;5.35;;;2.72;;
42000;SDS011;27689;48.390;10.856;2023-12-29T07:48:47;4.22;;;2.83;;
42000;SDS011;27689;48.390;10.856;2023-12-29T07:51:31;5.97;;;3.25;;
42000;SDS011;27689;48.390;10.856;2023-12-29T07:54:16;4.63;;;3.05;;
42000;SDS011;27689;48.390;10.856;2023-12-29T07:57:00;4.25;;;3.00;;
42000;SDS011;27689;48.390;10.856;2023-12-29T07:59:44;5.73;;;3.40;;
42000;SDS011;27689;48.390;10.856;2023-12-29T08:02:28;4.10;;;2.85;;
42000;SDS011;27689;48.390;10.856;2023-12-29T08:05:11;3.72;;;2.53;;
42000;SDS011;27689;48.390;10.856;2023-12-29T08:07:55;3.22;;;2.63;;
42000;SDS011;27689;48.390;10.856;2023-12-29T08:10:39;4.80;;;2.67;;
42000;SDS011;27689;48.390;10.856;2023-12-29T08:13:23;3.20;;;2.40;;
42000;SDS011;27689;48.390;10.856;2023-12-29T08:16:07;5.07;;;2.87;;
42000;SDS011;27689;48.390;10.856;2023-12-29T08:18:52;3.58;;;2.53;;
42000;SDS011;27689;48.390;10.856;2023-12-29T08:21:36;3.72;;;2.83;;
42000;SDS011;27689;48.390;10.856;2023-12-29T08:24:20;4.00;;;2.47;;
42000;SDS011;27689;48.390;10.856;2023-12-29T08:27:04;3.95;;;2.75;;
42000;SDS011;27689;48.390;10.856;2023-12-29T08:29:48;3.08;;;2.47;;
42000;SDS011;27689;48.390;10.856;2023-12-29T08:32:33;3.40;;;2.70;;
42000;SDS011;27689;48.390;10.856;2023-12-29T08:35:17;4.23;;;2.53;;
42000;SDS011;27689;48.390;10.856;2023-12-29T08:38:02;6.18;;;2.80;;
42000;SDS011;27689;48.390;10.856;2023-12-29T08:40:46;3.97;;;2.50;;
42000;SDS011;27689;48.390;10.856;2023-12-29T08:43:30;4.53;;;2.50;;
42000;SDS011;27689;48.390;10.856;2023-12-29T08:46:14;3.45;;;2.70;;
42000;SDS011;27689;48.390;10.856;2023-12-29T08:48:58;4.82;;;2.88;;
42000;SDS011;27689;48.390;10.856;2023-12-29T08:51:42;3.03;;;2.63;;
42000;SDS011;27689;48.390;10.856;2023-12-29T08:54:26;3.92;;;2.70;;
42000;SDS011;27689;48.390;10.856;2023-12-29T08:57:10;4.57;;;2.38;;
42000;SDS011;27689;48.390;10.856;2023-12-29T08:59:54;3.83;;;2.58;;
42000;SDS011;27689;48.390;10.856;2023-12-29T09:02:38;4.38;;;2.30;;
42000;SDS011;27689;48.390;10.856;2023-12-29T09:05:23;3.38;;;2.58;;
42000;SDS011;27689;48.390;10.856;2023-12-29T09:08:07;4.77;;;2.47;;
42000;SDS011;27689;48.390;10.856;2023-12-29T09:10:50;4.40;;;2.50;;
42000;SDS011;27689;48.390;10.856;2023-12-29T09:13:34;4.03;;;3.17;;
42000;SDS011;27689;48.390;10.856;2023-12-29T09:16:18;4.35;;;2.60;;
42000;SDS011;27689;48.390;10.856;2023-12-29T09:19:03;2.60;;;2.20;;
42000;SDS011;27689;48.390;10.856;2023-12-29T09:21:47;4.10;;;2.63;;
42000;SDS011;27689;48.390;10.856;2023-12-29T09:24:31;4.80;;;2.67;;
42000;SDS011;27689;48.390;10.856;2023-12-29T09:27:15;4.60;;;2.80;;
42000;SDS011;27689;48.390;10.856;2023-12-29T09:29:59;3.17;;;2.40;;
42000;SDS011;27689;48.390;10.856;2023-12-29T09:32:43;4.20;;;2.83;;
42000;SDS011;27689;48.390;10.856;2023-12-29T09:35:27;3.50;;;2.08;;
42000;SDS011;27689;48.390;10.856;2023-12-29T09:38:11;5.30;;;2.05;;
42000;SDS011;27689;48.390;10.856;2023-12-29T09:40:57;3.75;;;2.38;;
42000;SDS011;27689;48.390;10.856;2023-12-29T09:43:50;4.28;;;2.20;;
42000;SDS011;27689;48.390;10.856;2023-12-29T09:46:34;3.08;;;2.50;;
42000;SDS011;27689;48.390;10.856;2023-12-29T09:49:19;3.33;;;2.10;;
42000;SDS011;27689;48.390;10.856;2023-12-29T09:54:52;3.50;;;2.17;;
42000;SDS011;27689;48.390;10.856;2023-12-29T09:57:37;4.32;;;2.20;;
42000;SDS011;27689;48.390;10.856;2023-12-29T10:03:05;2.45;;;1.80;;
42000;SDS011;27689;48.390;10.856;2023-12-29T10:05:50;4.28;;;2.28;;
42000;SDS011;27689;48.390;10.856;2023-12-29T10:08:38;4.35;;;1.90;;
42000;SDS011;27689;48.390;10.856;2023-12-29T10:11:29;2.83;;;1.92;;
42000;SDS011;27689;48.390;10.856;2023-12-29T10:14:24;2.75;;;1.90;;
42000;SDS011;27689;48.390;10.856;2023-12-29T10:26:23;2.95;;;2.15;;
42000;SDS011;27689;48.390;10.856;2023-12-29T10:29:09;3.35;;;2.03;;
42000;SDS011;27689;48.390;10.856;2023-12-29T10:31:56;4.22;;;2.20;;
42000;SDS011;27689;48.390;10.856;2023-12-29T10:34:40;3.60;;;1.83;;
42000;SDS011;27689;48.390;10.856;2023-12-29T10:37:25;4.30;;;2.20;;
42000;SDS011;27689;48.390;10.856;2023-12-29T10:40:12;3.03;;;2.40;;
42000;SDS011;27689;48.390;10.856;2023-12-29T10:43:01;2.67;;;2.22;;
42000;SDS011;27689;48.390;10.856;2023-12-29T10:45:57;4.40;;;2.25;;
42000;SDS011;27689;48.390;10.856;2023-12-29T10:48:50;2.67;;;1.90;;
42000;SDS011;27689;48.390;10.856;2023-12-29T10:51:34;3.07;;;1.77;;
42000;SDS011;27689;48.390;10.856;2023-12-29T10:54:19;2.85;;;2.08;;
42000;SDS011;27689;48.390;10.856;2023-12-29T10:57:07;4.43;;;2.30;;
42000;SDS011;27689;48.390;10.856;2023-12-29T10:59:54;2.95;;;2.20;;
42000;SDS011;27689;48.390;10.856;2023-12-29T11:02:39;4.55;;;2.05;;
42000;SDS011;27689;48.390;10.856;2023-12-29T11:05:27;1.85;;;1.70;;
42000;SDS011;27689;48.390;10.856;2023-12-29T11:08:17;2.85;;;2.00;;
42000;SDS011;27689;48.390;10.856;2023-12-29T11:11:02;2.63;;;2.17;;
42000;SDS011;27689;48.390;10.856;2023-12-29T11:13:47;3.60;;;1.95;;
42000;SDS011;27689;48.390;10.856;2023-12-29T11:16:32;4.45;;;2.30;;
42000;SDS011;27689;48.390;10.856;2023-12-29T11:19:16;7.07;;;2.22;;
42000;SDS011;27689;48.390;10.856;2023-12-29T11:22:02;2.75;;;1.80;;
42000;SDS011;27689;48.390;10.856;2023-12-29T11:24:47;2.53;;;1.77;;
42000;SDS011;27689;48.390;10.856;2023-12-29T11:27:32;3.20;;;2.17;;
42000;SDS011;27689;48.390;10.856;2023-12-29T11:30:16;3.40;;;1.92;;
42000;SDS011;27689;48.390;10.856;2023-12-29T11:33:21;2.33;;;1.70;;
42000;SDS011;27689;48.390;10.856;2023-12-29T11:39:10;5.88;;;1.98;;
42000;SDS011;27689;48.390;10.856;2023-12-29T11:42:05;3.50;;;1.77;;
42000;SDS011;27689;48.390;10.856;2023-12-29T11:44:58;2.53;;;2.00;;
42000;SDS011;27689;48.390;10.856;2023-12-29T11:48:02;3.42;;;1.75;;
42000;SDS011;27689;48.390;10.856;2023-12-29T11:50:46;7.63;;;2.10;;
42000;SDS011;27689;48.390;10.856;2023-12-29T11:53:32;2.28;;;1.75;;
42000;SDS011;27689;48.390;10.856;2023-12-29T11:56:16;2.95;;;2.00;;
42000;SDS011;27689;48.390;10.856;2023-12-29T11:59:14;2.17;;;1.60;;
42000;SDS011;27689;48.390;10.856;2023-12-29T12:02:05;2.38;;;1.80;;
42000;SDS011;27689;48.390;10.856;2023-12-29T12:04:49;2.85;;;1.90;;
42000;SDS011;27689;48.390;10.856;2023-12-29T12:13:03;2.90;;;1.70;;
42000;SDS011;27689;48.390;10.856;2023-12-29T12:15:47;4.28;;;1.90;;
42000;SDS011;27689;48.390;10.856;2023-12-29T12:18:30;3.42;;;1.80;;
42000;SDS011;27689;48.390;10.856;2023-12-29T12:24:05;3.00;;;1.95;;
42000;SDS011;27689;48.390;10.856;2023-12-29T12:26:49;2.65;;;1.70;;
42000;SDS011;27689;48.390;10.856;2023-12-29T12:29:33;2.60;;;2.00;;
42000;SDS011;27689;48.390;10.856;2023-12-29T12:32:17;2.80;;;1.70;;
42000;SDS011;27689;48.390;10.856;2023-12-29T12:35:01;3.53;;;1.77;;
42000;SDS011;27689;48.390;10.856;2023-12-29T12:37:45;2.50;;;1.80;;
42000;SDS011;27689;48.390;10.856;2023-12-29T12:40:29;3.20;;;1.98;;
42000;SDS011;27689;48.390;10.856;2023-12-29T12:43:13;2.57;;;1.90;;
42000;SDS011;27689;48.390;10.856;2023-12-29T12:46:01;1.67;;;1.52;;
42000;SDS011;27689;48.390;10.856;2023-12-29T12:48:46;2.70;;;1.60;;
42000;SDS011;27689;48.390;10.856;2023-12-29T12:51:31;3.15;;;1.63;;
42000;SDS011;27689;48.390;10.856;2023-12-29T12:54:19;3.53;;;1.85;;
42000;SDS011;27689;48.390;10.856;2023-12-29T12:57:04;3.65;;;1.52;;
42000;SDS011;27689;48.390;10.856;2023-12-29T12:59:48;2.85;;;1.70;;
42000;SDS011;27689;48.390;10.856;2023-12-29T13:02:34;2.03;;;1.50;;
42000;SDS011;27689;48.390;10.856;2023-12-29T13:05:19;4.15;;;1.90;;
42000;SDS011;27689;48.390;10.856;2023-12-29T13:08:03;2.58;;;1.50;;
42000;SDS011;27689;48.390;10.856;2023-12-29T13:10:49;2.97;;;1.73;;
42000;SDS011;27689;48.390;10.856;2023-12-29T13:13:37;1.80;;;1.42;;
42000;SDS011;27689;48.390;10.856;2023-12-29T13:16:35;1.98;;;1.40;;
42000;SDS011;27689;48.390;10.856;2023-12-29T13:22:05;1.98;;;1.40;;
42000;SDS011;27689;48.390;10.856;2023-12-29T13:24:55;2.08;;;1.67;;
42000;SDS011;27689;48.390;10.856;2023-12-29T13:27:39;2.45;;;1.70;;
42000;SDS011;27689;48.390;10.856;2023-12-29T13:30:23;2.20;;;1.30;;
42000;SDS011;27689;48.390;10.856;2023-12-29T13:33:12;1.75;;;1.33;;
42000;SDS011;27689;48.390;10.856;2023-12-29T13:36:19;2.13;;;1.50;;
42000;SDS011;27689;48.390;10.856;2023-12-29T13:39:14;1.98;;;1.45;;
42000;SDS011;27689;48.390;10.856;2023-12-29T13:42:07;1.60;;;1.23;;
42000;SDS011;27689;48.390;10.856;2023-12-29T13:44:54;2.75;;;1.42;;
42000;SDS011;27689;48.390;10.856;2023-12-29T13:47:40;1.83;;;1.23;;
42000;SDS011;27689;48.390;10.856;2023-12-29T13:50:25;2.05;;;1.55;;
42000;SDS011;27689;48.390;10.856;2023-12-29T13:53:09;1.52;;;1.17;;
42000;SDS011;27689;48.390;10.856;2023-12-29T13:56:06;1.17;;;1.02;;
42000;SDS011;27689;48.390;10.856;2023-12-29T13:58:54;2.00;;;1.50;;
42000;SDS011;27689;48.390;10.856;2023-12-29T14:01:38;1.85;;;1.20;;
42000;SDS011;27689;48.390;10.856;2023-12-29T14:04:23;2.83;;;1.33;;
42000;SDS011;27689;48.390;10.856;2023-12-29T14:07:10;1.87;;;1.53;;
42000;SDS011;27689;48.390;10.856;2023-12-29T14:09:58;1.85;;;1.50;;
42000;SDS011;27689;48.390;10.856;2023-12-29T14:12:42;2.10;;;1.50;;
42000;SDS011;27689;48.390;10.856;2023-12-29T14:15:26;3.40;;;1.40;;
42000;SDS011;27689;48.390;10.856;2023-12-29T14:21:30;2.10;;;1.20;;
42000;SDS011;27689;48.390;10.856;2023-12-29T14:24:15;2.60;;;1.55;;
42000;SDS011;27689;48.390;10.856;2023-12-29T14:29:43;2.05;;;1.30;;
42000;SDS011;27689;48.390;10.856;2023-12-29T14:32:27;1.77;;;1.67;;
42000;SDS011;27689;48.390;10.856;2023-12-29T14:35:12;1.80;;;1.40;;
42000;SDS011;27689;48.390;10.856;2023-12-29T14:37:56;2.40;;;1.53;;
42000;SDS011;27689;48.390;10.856;2023-12-29T14:40:40;2.10;;;1.27;;
42000;SDS011;27689;48.390;10.856;2023-12-29T14:43:24;2.50;;;1.25;;
42000;SDS011;27689;48.390;10.856;2023-12-29T14:46:08;2.38;;;1.55;;
42000;SDS011;27689;48.390;10.856;2023-12-29T14:48:53;1.92;;;1.20;;
42000;SDS011;27689;48.390;10.856;2023-12-29T14:51:38;2.03;;;1.15;;
42000;SDS011;27689;48.390;10.856;2023-12-29T14:54:22;3.57;;;2.30;;
42000;SDS011;27689;48.390;10.856;2023-12-29T14:57:13;3.07;;;1.90;;
42000;SDS011;27689;48.390;10.856;2023-12-29T15:00:00;7.22;;;4.95;;
42000;SDS011;27689;48.390;10.856;2023-12-29T15:03:09;1.75;;;1.27;;
42000;SDS011;27689;48.390;10.856;2023-12-29T15:05:59;2.85;;;1.40;;
42000;SDS011;27689;48.390;10.856;2023-12-29T15:09:09;1.92;;;1.50;;
42000;SDS011;27689;48.390;10.856;2023-12-29T15:11:57;3.85;;;1.65;;
42000;SDS011;27689;48.390;10.856;2023-12-29T15:14:40;6.78;;;2.10;;
42000;SDS011;27689;48.390;10.856;2023-12-29T15:17:25;3.53;;;1.65;;
42000;SDS011;27689;48.390;10.856;2023-12-29T15:20:11;1.88;;;1.50;;
42000;SDS011;27689;48.390;10.856;2023-12-29T15:22:55;3.70;;;2.00;;
42000;SDS011;27689;48.390;10.856;2023-12-29T15:25:39;5.35;;;1.80;;
42000;SDS011;27689;48.390;10.856;2023-12-29T15:28:23;2.58;;;1.60;;
42000;SDS011;27689;48.390;10.856;2023-12-29T15:31:07;2.20;;;1.73;;
42000;SDS011;27689;48.390;10.856;2023-12-29T15:33:51;2.53;;;1.70;;
42000;SDS011;27689;48.390;10.856;2023-12-29T15:36:36;1.83;;;1.50;;
42000;SDS011;27689;48.390;10.856;2023-12-29T15:39:20;3.57;;;1.77;;
42000;SDS011;27689;48.390;10.856;2023-12-29T15:42:04;2.28;;;1.40;;
42000;SDS011;27689;48.390;10.856;2023-12-29T15:44:48;4.85;;;1.73;;
42000;SDS011;27689;48.390;10.856;2023-12-29T15:47:32;5.60;;;2.33;;
42000;SDS011;27689;48.390;10.856;2023-12-29T15:50:16;5.13;;;2.75;;
42000;SDS011;27689;48.390;10.856;2023-12-29T15:53:00;3.30;;;2.38;;
42000;SDS011;27689;48.390;10.856;2023-12-29T15:55:44;3.77;;;1.90;;
42000;SDS011;27689;48.390;10.856;2023-12-29T15:58:28;2.90;;;2.30;;
42000;SDS011;27689;48.390;10.856;2023-12-29T16:01:21;2.90;;;2.07;;
42000;SDS011;27689;48.390;10.856;2023-12-29T16:04:13;3.88;;;2.30;;
42000;SDS011;27689;48.390;10.856;2023-12-29T16:06:57;1.97;;;1.50;;
42000;SDS011;27689;48.390;10.856;2023-12-29T16:09:41;3.38;;;1.92;;
42000;SDS011;27689;48.390;10.856;2023-12-29T16:12:25;1.92;;;1.45;;
42000;SDS011;27689;48.390;10.856;2023-12-29T16:15:09;2.23;;;1.40;;
42000;SDS011;27689;48.390;10.856;2023-12-29T16:17:53;2.15;;;1.60;;
42000;SDS011;27689;48.390;10.856;2023-12-29T16:20:38;2.97;;;2.00;;
42000;SDS011;27689;48.390;10.856;2023-12-29T16:23:22;2.73;;;1.77;;
42000;SDS011;27689;48.390;10.856;2023-12-29T16:26:06;4.17;;;1.60;;
42000;SDS011;27689;48.390;10.856;2023-12-29T16:28:51;3.50;;;2.25;;
42000;SDS011;27689;48.390;10.856;2023-12-29T16:31:35;3.55;;;2.50;;
42000;SDS011;27689;48.390;10.856;2023-12-29T16:34:19;2.97;;;2.15;;
42000;SDS011;27689;48.390;10.856;2023-12-29T16:37:06;3.73;;;2.30;;
42000;SDS011;27689;48.390;10.856;2023-12-29T16:40:35;3.20;;;2.47;;
42000;SDS011;27689;48.390;10.856;2023-12-29T16:44:20;3.88;;;2.00;;
42000;SDS011;27689;48.390;10.856;2023-12-29T16:47:27;3.38;;;2.53;;
42000;SDS011;27689;48.390;10.856;2023-12-29T16:51:11;3.00;;;2.28;;
42000;SDS011;27689;48.390;10.856;2023-12-29T16:54:37;3.20;;;2.63;;
42000;SDS011;27689;48.390;10.856;2023-12-29T16:58:33;4.17;;;2.60;;
42000;SDS011;27689;48.390;10.856;2023-12-29T17:05:16;4.55;;;2.60;;
42000;SDS011;27689;48.390;10.856;2023-12-29T17:08:24;5.30;;;2.88;;